sensor_id;sensor_type;location;lat;lon;timestamp;P1;durP1;ratioP1;P2;durP2;ratioP2
75035;SDS011;64247;51.540;5.854;2023-07-13T00:00:21;4.65;;;1.58;;
75035;SDS011;64247;51.540;5.854;2023-07-13T00:02:22;5.25;;;1.90;;
75035;SDS011;64247;51.540;5.854;2023-07-13T00:04:25;6.03;;;2.10;;
75035;SDS011;64247;51.540;5.854;2023-07-13T00:06:26;3.35;;;1.60;;
75035;SDS011;64247;51.540;5.854;2023-07-13T00:08:31;2.75;;;1.65;;
75035;SDS011;64247;51.540;5.854;2023-07-13T00:10:33;3.72;;;1.85;;
75035;SDS011;64247;51.540;5.854;2023-07-13T00:12:35;5.82;;;1.60;;
75035;SDS011;64247;51.540;5.854;2023-07-13T00:14:37;4.45;;;2.42;;
75035;SDS011;64247;51.540;5.854;2023-07-13T00:16:39;3.40;;;1.75;;
75035;SDS011;64247;51.540;5.854;2023-07-13T00:18:43;5.18;;;1.73;;
75035;SDS011;64247;51.540;5.854;2023-07-13T00:20:46;3.80;;;1.67;;
75035;SDS011;64247;51.540;5.854;2023-07-13T00:22:47;4.20;;;1.80;;
75035;SDS011;64247;51.540;5.854;2023-07-13T00:24:49;3.40;;;1.70;;
75035;SDS011;64247;51.540;5.854;2023-07-13T00:26:52;4.55;;;1.88;;
75035;SDS011;64247;51.540;5.854;2023-07-13T00:28:53;4.75;;;1.90;;
75035;SDS011;64247;51.540;5.854;2023-07-13T00:30:54;4.97;;;2.20;;
75035;SDS011;64247;51.540;5.854;2023-07-13T00:32:55;3.40;;;1.85;;
75035;SDS011;64247;51.540;5.854;2023-07-13T00:34:56;3.35;;;1.60;;
75035;SDS011;64247;51.540;5.854;2023-07-13T00:37:00;7.20;;;3.47;;
75035;SDS011;64247;51.540;5.854;2023-07-13T00:39:01;6.60;;;1.98;;
75035;SDS011;64247;51.540;5.854;2023-07-13T00:41:05;2.13;;;1.80;;
75035;SDS011;64247;51.540;5.854;2023-07-13T00:48:32;8.50;;;2.55;;
75035;SDS011;64247;51.540;5.854;2023-07-13T00:50:37;4.13;;;1.73;;
75035;SDS011;64247;51.540;5.854;2023-07-13T00:52:40;4.80;;;1.60;;
75035;SDS011;64247;51.540;5.854;2023-07-13T00:54:52;6.65;;;2.08;;
75035;SDS011;64247;51.540;5.854;2023-07-13T00:56:55;3.25;;;1.95;;
75035;SDS011;64247;51.540;5.854;2023-07-13T00:59:03;5.88;;;2.03;;
75035;SDS011;64247;51.540;5.854;2023-07-13T01:01:08;4.80;;;2.22;;
75035;SDS011;64247;51.540;5.854;2023-07-13T01:03:09;5.78;;;1.80;;
75035;SDS011;64247;51.540;5.854;2023-07-13T01:05:13;4.10;;;1.67;;
75035;SDS011;64247;51.540;5.854;2023-07-13T01:07:18;4.57;;;2.22;;
75035;SDS011;64247;51.540;5.854;2023-07-13T01:09:19;3.08;;;1.70;;
75035;SDS011;64247;51.540;5.854;2023-07-13T01:11:21;4.05;;;1.77;;
75035;SDS011;64247;51.540;5.854;2023-07-13T01:13:22;6.50;;;1.85;;
75035;SDS011;64247;51.540;5.854;2023-07-13T01:17:46;2.13;;;1.70;;
75035;SDS011;64247;51.540;5.854;2023-07-13T01:19:47;3.85;;;2.15;;
75035;SDS011;64247;51.540;5.854;2023-07-13T01:21:51;3.17;;;2.05;;
75035;SDS011;64247;51.540;5.854;2023-07-13T01:23:53;6.40;;;2.35;;
75035;SDS011;64247;51.540;5.854;2023-07-13T01:25:55;5.07;;;2.50;;
75035;SDS011;64247;51.540;5.854;2023-07-13T01:27:57;6.25;;;1.58;;
75035;SDS011;64247;51.540;5.854;2023-07-13T01:29:59;4.38;;;1.65;;
75035;SDS011;64247;51.540;5.854;2023-07-13T01:32:04;9.23;;;2.10;;
75035;SDS011;64247;51.540;5.854;2023-07-13T01:34:08;6.13;;;1.75;;
75035;SDS011;64247;51.540;5.854;2023-07-13T01:36:09;5.30;;;2.20;;
75035;SDS011;64247;51.540;5.854;2023-07-13T01:38:15;7.35;;;2.20;;
75035;SDS011;64247;51.540;5.854;2023-07-13T01:40:21;7.50;;;2.22;;
75035;SDS011;64247;51.540;5.854;2023-07-13T01:42:22;5.85;;;2.28;;
75035;SDS011;64247;51.540;5.854;2023-07-13T01:44:23;3.33;;;2.05;;
75035;SDS011;64247;51.540;5.854;2023-07-13T01:46:24;2.60;;;1.80;;
75035;SDS011;64247;51.540;5.854;2023-07-13T01:48:25;3.83;;;1.55;;
75035;SDS011;64247;51.540;5.854;2023-07-13T01:50:26;6.13;;;2.03;;
75035;SDS011;64247;51.540;5.854;2023-07-13T01:52:27;5.20;;;1.65;;
75035;SDS011;64247;51.540;5.854;2023-07-13T01:54:28;5.93;;;1.90;;
75035;SDS011;64247;51.540;5.854;2023-07-13T01:56:29;3.85;;;1.77;;
75035;SDS011;64247;51.540;5.854;2023-07-13T01:58:30;5.88;;;1.80;;
75035;SDS011;64247;51.540;5.854;2023-07-13T02:00:31;4.63;;;2.25;;
75035;SDS011;64247;51.540;5.854;2023-07-13T02:02:33;4.10;;;1.98;;
75035;SDS011;64247;51.540;5.854;2023-07-13T02:04:34;2.97;;;2.05;;
75035;SDS011;64247;51.540;5.854;2023-07-13T02:06:37;2.88;;;2.00;;
75035;SDS011;64247;51.540;5.854;2023-07-13T02:08:38;7.10;;;1.77;;
75035;SDS011;64247;51.540;5.854;2023-07-13T02:10:39;3.88;;;1.73;;
75035;SDS011;64247;51.540;5.854;2023-07-13T02:12:40;5.45;;;1.75;;
75035;SDS011;64247;51.540;5.854;2023-07-13T02:14:42;7.28;;;2.30;;
75035;SDS011;64247;51.540;5.854;2023-07-13T02:16:43;5.65;;;2.42;;
75035;SDS011;64247;51.540;5.854;2023-07-13T02:18:44;6.20;;;2.10;;
75035;SDS011;64247;51.540;5.854;2023-07-13T02:20:45;5.68;;;2.05;;
75035;SDS011;64247;51.540;5.854;2023-07-13T02:22:46;3.60;;;1.70;;
75035;SDS011;64247;51.540;5.854;2023-07-13T02:24:47;5.20;;;2.20;;
75035;SDS011;64247;51.540;5.854;2023-07-13T02:26:52;4.68;;;2.08;;
75035;SDS011;64247;51.540;5.854;2023-07-13T02:28:54;6.60;;;1.92;;
75035;SDS011;64247;51.540;5.854;2023-07-13T02:30:55;4.68;;;1.67;;
75035;SDS011;64247;51.540;5.854;2023-07-13T02:33:06;5.15;;;1.85;;
75035;SDS011;64247;51.540;5.854;2023-07-13T02:35:07;6.60;;;2.03;;
75035;SDS011;64247;51.540;5.854;2023-07-13T02:37:08;5.25;;;2.40;;
75035;SDS011;64247;51.540;5.854;2023-07-13T02:39:09;4.95;;;1.85;;
75035;SDS011;64247;51.540;5.854;2023-07-13T02:41:13;4.22;;;1.73;;
75035;SDS011;64247;51.540;5.854;2023-07-13T02:43:14;6.30;;;2.38;;
75035;SDS011;64247;51.540;5.854;2023-07-13T02:45:15;6.00;;;2.20;;
75035;SDS011;64247;51.540;5.854;2023-07-13T02:47:16;7.55;;;2.85;;
75035;SDS011;64247;51.540;5.854;2023-07-13T02:49:17;4.15;;;2.40;;
75035;SDS011;64247;51.540;5.854;2023-07-13T02:51:18;3.58;;;2.05;;
75035;SDS011;64247;51.540;5.854;2023-07-13T02:53:19;4.32;;;1.90;;
75035;SDS011;64247;51.540;5.854;2023-07-13T02:55:20;6.18;;;2.22;;
75035;SDS011;64247;51.540;5.854;2023-07-13T02:57:21;4.80;;;2.00;;
75035;SDS011;64247;51.540;5.854;2023-07-13T02:59:22;6.53;;;3.00;;
75035;SDS011;64247;51.540;5.854;2023-07-13T03:01:23;4.82;;;2.08;;
75035;SDS011;64247;51.540;5.854;2023-07-13T03:03:25;5.63;;;2.75;;
75035;SDS011;64247;51.540;5.854;2023-07-13T03:05:27;5.10;;;2.30;;
75035;SDS011;64247;51.540;5.854;2023-07-13T03:07:29;6.20;;;2.28;;
75035;SDS011;64247;51.540;5.854;2023-07-13T03:09:32;3.78;;;2.45;;
75035;SDS011;64247;51.540;5.854;2023-07-13T03:11:36;7.25;;;2.20;;
75035;SDS011;64247;51.540;5.854;2023-07-13T03:13:46;6.85;;;2.78;;
75035;SDS011;64247;51.540;5.854;2023-07-13T03:15:48;5.93;;;2.10;;
75035;SDS011;64247;51.540;5.854;2023-07-13T03:17:49;5.85;;;2.70;;
75035;SDS011;64247;51.540;5.854;2023-07-13T03:19:50;6.63;;;2.53;;
75035;SDS011;64247;51.540;5.854;2023-07-13T03:21:52;4.25;;;2.35;;
75035;SDS011;64247;51.540;5.854;2023-07-13T03:23:54;9.35;;;3.42;;
75035;SDS011;64247;51.540;5.854;2023-07-13T03:28:17;7.82;;;2.40;;
75035;SDS011;64247;51.540;5.854;2023-07-13T03:30:18;8.20;;;2.60;;
75035;SDS011;64247;51.540;5.854;2023-07-13T03:32:19;3.03;;;1.85;;
75035;SDS011;64247;51.540;5.854;2023-07-13T03:34:20;4.88;;;2.30;;
75035;SDS011;64247;51.540;5.854;2023-07-13T03:36:23;4.55;;;2.17;;
75035;SDS011;64247;51.540;5.854;2023-07-13T03:38:29;4.78;;;1.98;;
75035;SDS011;64247;51.540;5.854;2023-07-13T03:40:30;7.88;;;2.55;;
75035;SDS011;64247;51.540;5.854;2023-07-13T03:42:31;4.55;;;2.17;;
75035;SDS011;64247;51.540;5.854;2023-07-13T03:44:32;5.78;;;2.85;;
75035;SDS011;64247;51.540;5.854;2023-07-13T03:46:33;7.88;;;2.67;;
75035;SDS011;64247;51.540;5.854;2023-07-13T03:48:34;6.82;;;2.50;;
75035;SDS011;64247;51.540;5.854;2023-07-13T03:50:36;5.68;;;2.80;;
75035;SDS011;64247;51.540;5.854;2023-07-13T03:52:37;7.78;;;2.58;;
75035;SDS011;64247;51.540;5.854;2023-07-13T03:54:38;3.97;;;2.38;;
75035;SDS011;64247;51.540;5.854;2023-07-13T03:56:40;3.53;;;2.50;;
75035;SDS011;64247;51.540;5.854;2023-07-13T03:58:43;7.18;;;2.67;;
75035;SDS011;64247;51.540;5.854;2023-07-13T04:00:51;9.25;;;2.75;;
75035;SDS011;64247;51.540;5.854;2023-07-13T04:02:52;7.82;;;2.55;;
75035;SDS011;64247;51.540;5.854;2023-07-13T04:04:53;9.00;;;2.88;;
75035;SDS011;64247;51.540;5.854;2023-07-13T04:06:59;3.88;;;2.20;;
75035;SDS011;64247;51.540;5.854;2023-07-13T04:09:01;7.53;;;3.15;;
75035;SDS011;64247;51.540;5.854;2023-07-13T04:11:06;7.55;;;2.88;;
75035;SDS011;64247;51.540;5.854;2023-07-13T04:13:07;7.10;;;3.25;;
75035;SDS011;64247;51.540;5.854;2023-07-13T04:15:08;8.00;;;3.28;;
75035;SDS011;64247;51.540;5.854;2023-07-13T04:17:10;6.80;;;2.50;;
75035;SDS011;64247;51.540;5.854;2023-07-13T04:19:10;5.03;;;2.78;;
75035;SDS011;64247;51.540;5.854;2023-07-13T04:21:12;4.82;;;2.50;;
75035;SDS011;64247;51.540;5.854;2023-07-13T04:23:14;5.32;;;3.13;;
75035;SDS011;64247;51.540;5.854;2023-07-13T04:25:16;3.92;;;2.72;;
75035;SDS011;64247;51.540;5.854;2023-07-13T04:27:17;9.93;;;2.90;;
75035;SDS011;64247;51.540;5.854;2023-07-13T04:29:18;6.60;;;3.20;;
75035;SDS011;64247;51.540;5.854;2023-07-13T04:31:18;6.88;;;2.88;;
75035;SDS011;64247;51.540;5.854;2023-07-13T04:33:20;4.65;;;3.22;;
75035;SDS011;64247;51.540;5.854;2023-07-13T04:35:22;6.82;;;2.47;;
75035;SDS011;64247;51.540;5.854;2023-07-13T04:37:23;6.68;;;3.17;;
75035;SDS011;64247;51.540;5.854;2023-07-13T04:39:24;6.65;;;3.70;;
75035;SDS011;64247;51.540;5.854;2023-07-13T04:41:28;7.45;;;2.72;;
75035;SDS011;64247;51.540;5.854;2023-07-13T04:43:29;10.38;;;3.50;;
75035;SDS011;64247;51.540;5.854;2023-07-13T04:45:31;6.75;;;3.55;;
75035;SDS011;64247;51.540;5.854;2023-07-13T04:47:32;8.23;;;3.80;;
75035;SDS011;64247;51.540;5.854;2023-07-13T04:49:33;10.85;;;3.42;;
75035;SDS011;64247;51.540;5.854;2023-07-13T04:51:34;4.20;;;3.13;;
75035;SDS011;64247;51.540;5.854;2023-07-13T04:53:35;9.35;;;4.55;;
75035;SDS011;64247;51.540;5.854;2023-07-13T04:55:36;6.72;;;3.20;;
75035;SDS011;64247;51.540;5.854;2023-07-13T04:57:38;8.07;;;3.58;;
75035;SDS011;64247;51.540;5.854;2023-07-13T04:59:39;6.70;;;3.28;;
75035;SDS011;64247;51.540;5.854;2023-07-13T05:01:40;8.43;;;2.80;;
75035;SDS011;64247;51.540;5.854;2023-07-13T05:03:41;9.55;;;4.05;;
75035;SDS011;64247;51.540;5.854;2023-07-13T05:05:42;6.57;;;2.65;;
75035;SDS011;64247;51.540;5.854;2023-07-13T05:07:43;4.45;;;3.03;;
75035;SDS011;64247;51.540;5.854;2023-07-13T05:09:44;6.18;;;3.38;;
75035;SDS011;64247;51.540;5.854;2023-07-13T05:11:45;12.02;;;4.10;;
75035;SDS011;64247;51.540;5.854;2023-07-13T05:13:46;16.30;;;4.88;;
75035;SDS011;64247;51.540;5.854;2023-07-13T05:15:52;5.38;;;3.28;;
75035;SDS011;64247;51.540;5.854;2023-07-13T05:18:04;9.68;;;4.80;;
75035;SDS011;64247;51.540;5.854;2023-07-13T05:20:06;16.45;;;5.28;;
75035;SDS011;64247;51.540;5.854;2023-07-13T05:22:09;8.32;;;4.07;;
75035;SDS011;64247;51.540;5.854;2023-07-13T05:24:10;12.98;;;4.15;;
75035;SDS011;64247;51.540;5.854;2023-07-13T05:26:12;11.18;;;3.90;;
75035;SDS011;64247;51.540;5.854;2023-07-13T05:28:13;11.45;;;5.07;;
75035;SDS011;64247;51.540;5.854;2023-07-13T05:30:14;10.85;;;4.97;;
75035;SDS011;64247;51.540;5.854;2023-07-13T05:32:14;9.43;;;3.78;;
75035;SDS011;64247;51.540;5.854;2023-07-13T05:34:15;10.70;;;4.38;;
75035;SDS011;64247;51.540;5.854;2023-07-13T05:36:16;7.85;;;4.05;;
75035;SDS011;64247;51.540;5.854;2023-07-13T05:38:17;11.70;;;3.53;;
75035;SDS011;64247;51.540;5.854;2023-07-13T05:40:18;7.68;;;4.07;;
75035;SDS011;64247;51.540;5.854;2023-07-13T05:42:19;12.68;;;4.85;;
75035;SDS011;64247;51.540;5.854;2023-07-13T05:44:20;9.10;;;3.63;;
75035;SDS011;64247;51.540;5.854;2023-07-13T05:46:21;8.57;;;4.63;;
75035;SDS011;64247;51.540;5.854;2023-07-13T05:48:22;10.50;;;4.47;;
75035;SDS011;64247;51.540;5.854;2023-07-13T05:50:23;10.88;;;4.75;;
75035;SDS011;64247;51.540;5.854;2023-07-13T05:52:28;8.02;;;4.25;;
75035;SDS011;64247;51.540;5.854;2023-07-13T05:54:29;11.02;;;4.05;;
75035;SDS011;64247;51.540;5.854;2023-07-13T05:56:30;14.35;;;4.43;;
75035;SDS011;64247;51.540;5.854;2023-07-13T05:58:31;12.23;;;4.70;;
75035;SDS011;64247;51.540;5.854;2023-07-13T06:00:32;10.02;;;4.40;;
75035;SDS011;64247;51.540;5.854;2023-07-13T06:02:33;14.63;;;5.20;;
75035;SDS011;64247;51.540;5.854;2023-07-13T06:04:35;9.68;;;5.00;;
75035;SDS011;64247;51.540;5.854;2023-07-13T06:06:37;13.57;;;4.95;;
75035;SDS011;64247;51.540;5.854;2023-07-13T06:08:38;9.35;;;5.72;;
75035;SDS011;64247;51.540;5.854;2023-07-13T06:10:39;9.20;;;4.63;;
75035;SDS011;64247;51.540;5.854;2023-07-13T06:12:40;10.63;;;4.47;;
75035;SDS011;64247;51.540;5.854;2023-07-13T06:14:41;14.02;;;6.10;;
75035;SDS011;64247;51.540;5.854;2023-07-13T06:16:42;10.65;;;4.70;;
75035;SDS011;64247;51.540;5.854;2023-07-13T06:18:43;8.07;;;4.43;;
75035;SDS011;64247;51.540;5.854;2023-07-13T06:20:45;14.38;;;5.22;;
75035;SDS011;64247;51.540;5.854;2023-07-13T06:22:48;12.43;;;6.30;;
75035;SDS011;64247;51.540;5.854;2023-07-13T06:24:49;13.05;;;6.15;;
75035;SDS011;64247;51.540;5.854;2023-07-13T06:26:50;11.48;;;6.18;;
75035;SDS011;64247;51.540;5.854;2023-07-13T06:28:51;13.02;;;4.80;;
75035;SDS011;64247;51.540;5.854;2023-07-13T06:30:53;6.68;;;3.75;;
75035;SDS011;64247;51.540;5.854;2023-07-13T06:32:54;7.47;;;3.33;;
75035;SDS011;64247;51.540;5.854;2023-07-13T06:34:54;7.38;;;4.57;;
75035;SDS011;64247;51.540;5.854;2023-07-13T06:36:55;9.75;;;4.88;;
75035;SDS011;64247;51.540;5.854;2023-07-13T06:38:56;14.32;;;6.22;;
75035;SDS011;64247;51.540;5.854;2023-07-13T06:40:57;12.45;;;4.80;;
75035;SDS011;64247;51.540;5.854;2023-07-13T06:42:58;13.82;;;5.95;;
75035;SDS011;64247;51.540;5.854;2023-07-13T06:44:59;10.02;;;5.57;;
75035;SDS011;64247;51.540;5.854;2023-07-13T06:47:00;10.80;;;5.28;;
75035;SDS011;64247;51.540;5.854;2023-07-13T06:49:01;12.32;;;5.88;;
75035;SDS011;64247;51.540;5.854;2023-07-13T06:51:02;11.20;;;5.32;;
75035;SDS011;64247;51.540;5.854;2023-07-13T06:53:04;7.80;;;3.53;;
75035;SDS011;64247;51.540;5.854;2023-07-13T06:55:05;9.57;;;4.75;;
75035;SDS011;64247;51.540;5.854;2023-07-13T06:57:09;9.50;;;4.85;;
75035;SDS011;64247;51.540;5.854;2023-07-13T06:59:10;8.50;;;5.15;;
75035;SDS011;64247;51.540;5.854;2023-07-13T07:01:11;13.25;;;5.15;;
75035;SDS011;64247;51.540;5.854;2023-07-13T07:03:12;9.23;;;5.03;;
75035;SDS011;64247;51.540;5.854;2023-07-13T07:05:13;8.65;;;3.83;;
75035;SDS011;64247;51.540;5.854;2023-07-13T07:07:14;12.05;;;5.55;;
75035;SDS011;64247;51.540;5.854;2023-07-13T07:09:15;13.15;;;4.75;;
75035;SDS011;64247;51.540;5.854;2023-07-13T07:11:18;12.35;;;5.78;;
75035;SDS011;64247;51.540;5.854;2023-07-13T07:13:25;6.93;;;3.80;;
75035;SDS011;64247;51.540;5.854;2023-07-13T07:15:28;12.95;;;7.15;;
75035;SDS011;64247;51.540;5.854;2023-07-13T07:17:30;14.85;;;5.53;;
75035;SDS011;64247;51.540;5.854;2023-07-13T07:19:31;13.02;;;5.10;;
75035;SDS011;64247;51.540;5.854;2023-07-13T07:21:32;10.27;;;5.32;;
75035;SDS011;64247;51.540;5.854;2023-07-13T07:23:33;11.18;;;6.22;;
75035;SDS011;64247;51.540;5.854;2023-07-13T07:25:34;13.93;;;5.53;;
75035;SDS011;64247;51.540;5.854;2023-07-13T07:27:37;8.85;;;4.00;;
75035;SDS011;64247;51.540;5.854;2023-07-13T07:29:38;9.00;;;4.60;;
75035;SDS011;64247;51.540;5.854;2023-07-13T07:31:39;10.80;;;4.78;;
75035;SDS011;64247;51.540;5.854;2023-07-13T07:34:00;11.95;;;5.85;;
75035;SDS011;64247;51.540;5.854;2023-07-13T07:36:01;17.58;;;7.57;;
75035;SDS011;64247;51.540;5.854;2023-07-13T07:38:03;14.60;;;6.53;;
75035;SDS011;64247;51.540;5.854;2023-07-13T07:40:05;9.60;;;5.45;;
75035;SDS011;64247;51.540;5.854;2023-07-13T07:42:07;13.18;;;6.13;;
75035;SDS011;64247;51.540;5.854;2023-07-13T07:44:08;18.50;;;7.25;;
75035;SDS011;64247;51.540;5.854;2023-07-13T07:46:10;10.32;;;4.75;;
75035;SDS011;64247;51.540;5.854;2023-07-13T07:48:11;11.48;;;6.65;;
75035;SDS011;64247;51.540;5.854;2023-07-13T07:50:12;12.23;;;6.25;;
75035;SDS011;64247;51.540;5.854;2023-07-13T07:52:14;12.52;;;5.93;;
75035;SDS011;64247;51.540;5.854;2023-07-13T07:54:15;11.60;;;5.20;;
75035;SDS011;64247;51.540;5.854;2023-07-13T07:56:16;16.52;;;6.50;;
75035;SDS011;64247;51.540;5.854;2023-07-13T07:58:18;8.43;;;4.38;;
75035;SDS011;64247;51.540;5.854;2023-07-13T08:00:19;9.85;;;4.80;;
75035;SDS011;64247;51.540;5.854;2023-07-13T08:02:21;12.50;;;6.00;;
75035;SDS011;64247;51.540;5.854;2023-07-13T08:04:22;13.32;;;5.95;;
75035;SDS011;64247;51.540;5.854;2023-07-13T08:06:23;10.63;;;4.85;;
75035;SDS011;64247;51.540;5.854;2023-07-13T08:08:25;12.18;;;5.78;;
75035;SDS011;64247;51.540;5.854;2023-07-13T08:10:26;11.00;;;5.20;;
75035;SDS011;64247;51.540;5.854;2023-07-13T08:12:27;12.07;;;5.38;;
75035;SDS011;64247;51.540;5.854;2023-07-13T08:14:28;8.65;;;3.95;;
75035;SDS011;64247;51.540;5.854;2023-07-13T08:16:29;10.70;;;4.95;;
75035;SDS011;64247;51.540;5.854;2023-07-13T08:18:33;15.73;;;6.70;;
75035;SDS011;64247;51.540;5.854;2023-07-13T08:20:36;11.82;;;6.07;;
75035;SDS011;64247;51.540;5.854;2023-07-13T08:22:40;12.48;;;6.13;;
75035;SDS011;64247;51.540;5.854;2023-07-13T08:24:41;10.90;;;5.47;;
75035;SDS011;64247;51.540;5.854;2023-07-13T08:26:45;8.90;;;5.30;;
75035;SDS011;64247;51.540;5.854;2023-07-13T08:28:48;11.82;;;3.80;;
75035;SDS011;64247;51.540;5.854;2023-07-13T08:30:49;8.98;;;4.18;;
75035;SDS011;64247;51.540;5.854;2023-07-13T08:32:51;10.60;;;4.20;;
75035;SDS011;64247;51.540;5.854;2023-07-13T08:34:54;6.32;;;4.45;;
75035;SDS011;64247;51.540;5.854;2023-07-13T08:36:54;10.43;;;5.45;;
75035;SDS011;64247;51.540;5.854;2023-07-13T08:38:55;11.23;;;3.47;;
75035;SDS011;64247;51.540;5.854;2023-07-13T08:40:57;8.45;;;4.72;;
75035;SDS011;64247;51.540;5.854;2023-07-13T08:42:58;8.40;;;3.95;;
75035;SDS011;64247;51.540;5.854;2023-07-13T08:48:02;9.27;;;4.00;;
75035;SDS011;64247;51.540;5.854;2023-07-13T08:50:19;10.68;;;4.20;;
75035;SDS011;64247;51.540;5.854;2023-07-13T08:54:49;6.85;;;3.88;;
75035;SDS011;64247;51.540;5.854;2023-07-13T08:56:55;6.97;;;4.68;;
75035;SDS011;64247;51.540;5.854;2023-07-13T08:59:06;10.02;;;4.75;;
75035;SDS011;64247;51.540;5.854;2023-07-13T09:01:16;7.40;;;3.58;;
75035;SDS011;64247;51.540;5.854;2023-07-13T09:03:31;10.40;;;4.63;;
75035;SDS011;64247;51.540;5.854;2023-07-13T09:05:43;6.82;;;3.30;;
75035;SDS011;64247;51.540;5.854;2023-07-13T09:16:44;6.00;;;3.38;;
75035;SDS011;64247;51.540;5.854;2023-07-13T09:18:49;5.75;;;2.78;;
75035;SDS011;64247;51.540;5.854;2023-07-13T09:21:03;8.57;;;3.05;;
75035;SDS011;64247;51.540;5.854;2023-07-13T09:23:16;3.50;;;2.28;;
75035;SDS011;64247;51.540;5.854;2023-07-13T09:27:44;7.28;;;3.00;;
75035;SDS011;64247;51.540;5.854;2023-07-13T09:29:54;8.50;;;3.55;;
75035;SDS011;64247;51.540;5.854;2023-07-13T09:32:19;6.93;;;3.10;;
75035;SDS011;64247;51.540;5.854;2023-07-13T09:34:25;8.10;;;3.45;;
75035;SDS011;64247;51.540;5.854;2023-07-13T09:36:31;8.02;;;3.33;;
75035;SDS011;64247;51.540;5.854;2023-07-13T09:38:35;5.47;;;3.10;;
75035;SDS011;64247;51.540;5.854;2023-07-13T09:40:43;5.32;;;3.05;;
75035;SDS011;64247;51.540;5.854;2023-07-13T09:43:00;5.65;;;3.05;;
75035;SDS011;64247;51.540;5.854;2023-07-13T09:45:03;4.38;;;3.00;;
75035;SDS011;64247;51.540;5.854;2023-07-13T09:49:32;4.15;;;2.85;;
75035;SDS011;64247;51.540;5.854;2023-07-13T09:51:37;3.10;;;2.63;;
75035;SDS011;64247;51.540;5.854;2023-07-13T09:53:42;6.47;;;2.30;;
75035;SDS011;64247;51.540;5.854;2023-07-13T09:55:45;3.50;;;2.15;;
75035;SDS011;64247;51.540;5.854;2023-07-13T09:57:48;6.47;;;2.72;;
75035;SDS011;64247;51.540;5.854;2023-07-13T09:59:52;2.10;;;1.88;;
75035;SDS011;64247;51.540;5.854;2023-07-13T10:01:56;2.40;;;1.25;;
75035;SDS011;64247;51.540;5.854;2023-07-13T10:03:57;2.67;;;1.48;;
75035;SDS011;64247;51.540;5.854;2023-07-13T10:06:20;3.17;;;2.67;;
75035;SDS011;64247;51.540;5.854;2023-07-13T10:08:27;4.78;;;2.10;;
75035;SDS011;64247;51.540;5.854;2023-07-13T10:10:30;5.50;;;2.67;;
75035;SDS011;64247;51.540;5.854;2023-07-13T10:12:36;7.40;;;2.78;;
75035;SDS011;64247;51.540;5.854;2023-07-13T10:14:39;1.98;;;1.63;;
75035;SDS011;64247;51.540;5.854;2023-07-13T10:16:43;4.63;;;2.28;;
75035;SDS011;64247;51.540;5.854;2023-07-13T10:18:48;4.90;;;2.30;;
75035;SDS011;64247;51.540;5.854;2023-07-13T10:23:20;4.95;;;1.90;;
75035;SDS011;64247;51.540;5.854;2023-07-13T10:25:34;5.60;;;2.15;;
75035;SDS011;64247;51.540;5.854;2023-07-13T10:27:41;3.90;;;1.70;;
75035;SDS011;64247;51.540;5.854;2023-07-13T10:32:32;7.07;;;2.92;;
75035;SDS011;64247;51.540;5.854;2023-07-13T10:34:33;4.07;;;2.38;;
75035;SDS011;64247;51.540;5.854;2023-07-13T10:36:45;3.53;;;2.30;;
75035;SDS011;64247;51.540;5.854;2023-07-13T10:38:48;3.67;;;2.40;;
75035;SDS011;64247;51.540;5.854;2023-07-13T10:40:58;2.67;;;1.55;;
75035;SDS011;64247;51.540;5.854;2023-07-13T10:43:09;5.68;;;2.42;;
75035;SDS011;64247;51.540;5.854;2023-07-13T10:45:21;3.00;;;2.03;;
75035;SDS011;64247;51.540;5.854;2023-07-13T10:47:24;6.88;;;2.17;;
75035;SDS011;64247;51.540;5.854;2023-07-13T10:49:27;5.05;;;2.17;;
75035;SDS011;64247;51.540;5.854;2023-07-13T10:51:32;5.07;;;1.80;;
75035;SDS011;64247;51.540;5.854;2023-07-13T10:53:35;2.90;;;2.00;;
75035;SDS011;64247;51.540;5.854;2023-07-13T11:01:21;3.15;;;1.83;;
75035;SDS011;64247;51.540;5.854;2023-07-13T11:03:24;4.45;;;2.15;;
75035;SDS011;64247;51.540;5.854;2023-07-13T11:05:31;4.82;;;1.95;;
75035;SDS011;64247;51.540;5.854;2023-07-13T11:07:54;3.85;;;2.20;;
75035;SDS011;64247;51.540;5.854;2023-07-13T11:10:04;3.90;;;2.40;;
75035;SDS011;64247;51.540;5.854;2023-07-13T11:12:48;2.88;;;2.08;;
75035;SDS011;64247;51.540;5.854;2023-07-13T11:17:35;3.53;;;1.52;;
75035;SDS011;64247;51.540;5.854;2023-07-13T11:22:25;2.75;;;1.60;;
75035;SDS011;64247;51.540;5.854;2023-07-13T11:24:56;3.58;;;1.45;;
75035;SDS011;64247;51.540;5.854;2023-07-13T11:27:01;2.08;;;1.30;;
75035;SDS011;64247;51.540;5.854;2023-07-13T11:29:47;3.00;;;1.42;;
75035;SDS011;64247;51.540;5.854;2023-07-13T11:31:51;3.38;;;1.58;;
75035;SDS011;64247;51.540;5.854;2023-07-13T11:33:56;6.13;;;1.60;;
75035;SDS011;64247;51.540;5.854;2023-07-13T11:36:02;3.38;;;1.95;;
75035;SDS011;64247;51.540;5.854;2023-07-13T11:38:38;2.95;;;1.88;;
75035;SDS011;64247;51.540;5.854;2023-07-13T11:40:44;4.28;;;1.80;;
75035;SDS011;64247;51.540;5.854;2023-07-13T11:42:47;6.07;;;2.10;;
75035;SDS011;64247;51.540;5.854;2023-07-13T11:44:50;1.88;;;1.40;;
75035;SDS011;64247;51.540;5.854;2023-07-13T11:46:55;2.50;;;1.48;;
75035;SDS011;64247;51.540;5.854;2023-07-13T11:49:00;3.10;;;1.25;;
75035;SDS011;64247;51.540;5.854;2023-07-13T11:51:04;4.60;;;2.22;;
75035;SDS011;64247;51.540;5.854;2023-07-13T11:53:08;2.63;;;2.05;;
75035;SDS011;64247;51.540;5.854;2023-07-13T11:55:14;5.88;;;1.98;;
75035;SDS011;64247;51.540;5.854;2023-07-13T12:00:09;5.65;;;2.00;;
75035;SDS011;64247;51.540;5.854;2023-07-13T12:02:17;4.32;;;2.28;;
75035;SDS011;64247;51.540;5.854;2023-07-13T12:04:32;3.17;;;2.40;;
75035;SDS011;64247;51.540;5.854;2023-07-13T12:06:35;3.30;;;2.22;;
75035;SDS011;64247;51.540;5.854;2023-07-13T12:08:39;2.38;;;1.63;;
75035;SDS011;64247;51.540;5.854;2023-07-13T12:10:40;4.13;;;2.22;;
75035;SDS011;64247;51.540;5.854;2023-07-13T12:15:10;2.65;;;2.45;;
75035;SDS011;64247;51.540;5.854;2023-07-13T12:17:16;7.53;;;2.38;;
75035;SDS011;64247;51.540;5.854;2023-07-13T12:19:23;3.45;;;1.85;;
75035;SDS011;64247;51.540;5.854;2023-07-13T12:21:32;4.25;;;2.28;;
75035;SDS011;64247;51.540;5.854;2023-07-13T12:23:39;3.25;;;2.80;;
75035;SDS011;64247;51.540;5.854;2023-07-13T12:25:45;5.80;;;2.67;;
75035;SDS011;64247;51.540;5.854;2023-07-13T12:27:46;5.60;;;2.40;;
75035;SDS011;64247;51.540;5.854;2023-07-13T12:29:51;3.90;;;3.03;;
75035;SDS011;64247;51.540;5.854;2023-07-13T12:31:59;4.30;;;3.40;;
75035;SDS011;64247;51.540;5.854;2023-07-13T12:34:01;7.05;;;4.28;;
75035;SDS011;64247;51.540;5.854;2023-07-13T12:36:32;8.23;;;4.35;;
75035;SDS011;64247;51.540;5.854;2023-07-13T12:38:37;8.70;;;4.93;;
75035;SDS011;64247;51.540;5.854;2023-07-13T12:40:38;6.75;;;4.50;;
75035;SDS011;64247;51.540;5.854;2023-07-13T12:42:40;8.73;;;4.65;;
75035;SDS011;64247;51.540;5.854;2023-07-13T12:44:42;12.93;;;6.32;;
75035;SDS011;64247;51.540;5.854;2023-07-13T12:49:12;6.82;;;4.30;;
75035;SDS011;64247;51.540;5.854;2023-07-13T12:51:15;4.78;;;3.33;;
75035;SDS011;64247;51.540;5.854;2023-07-13T12:53:19;7.32;;;3.65;;
75035;SDS011;64247;51.540;5.854;2023-07-13T12:55:23;5.07;;;4.22;;
75035;SDS011;64247;51.540;5.854;2023-07-13T12:57:24;5.35;;;4.15;;
75035;SDS011;64247;51.540;5.854;2023-07-13T12:59:29;7.78;;;4.95;;
75035;SDS011;64247;51.540;5.854;2023-07-13T13:01:34;6.80;;;4.50;;
75035;SDS011;64247;51.540;5.854;2023-07-13T13:03:48;6.88;;;4.40;;
75035;SDS011;64247;51.540;5.854;2023-07-13T13:08:04;5.93;;;5.13;;
75035;SDS011;64247;51.540;5.854;2023-07-13T13:10:11;7.75;;;4.63;;
75035;SDS011;64247;51.540;5.854;2023-07-13T13:12:14;7.28;;;3.75;;
75035;SDS011;64247;51.540;5.854;2023-07-13T13:14:15;4.55;;;3.35;;
75035;SDS011;64247;51.540;5.854;2023-07-13T13:16:21;4.60;;;3.47;;
75035;SDS011;64247;51.540;5.854;2023-07-13T13:18:52;4.57;;;3.22;;